Time;durP1;ratioP1;P1;durP2;ratioP2;P2;SDS_P1;SDS_P2;PMS_P1;PMS_P2;Temp;Humidity;BMP_temperature;BMP_pressure;BME280_temperature;BME280_humidity;BME280_pressure;Samples;Min_cycle;Max_cycle;Signal;HPM_P1;HPM_P2
2021/08/30 00:01:56;;;;;;;;;3.25;3.25;;;;;23.24;46.49;101641.22;5077540;27;51013;-59
2021/08/30 00:04:21;;;;;;;;;2.25;2.00;;;;;23.24;46.44;101638.47;5088784;27;53359;-59
2021/08/30 00:06:48;;;;;;;;;3.25;3.00;;;;;23.23;46.55;101634.84;5084185;27;51072;-58
2021/08/30 00:09:14;;;;;;;;;5.50;3.00;;;;;23.21;46.16;101645.28;5078666;27;51037;-58
2021/08/30 00:11:39;;;;;;;;;4.00;3.00;;;;;23.21;46.23;101647.22;5078735;27;51194;-59
2021/08/30 00:14:04;;;;;;;;;4.00;4.00;;;;;23.19;45.99;101638.31;5082033;27;51107;-59
2021/08/30 00:16:30;;;;;;;;;5.50;3.00;;;;;23.19;46.72;101644.69;5080307;27;51228;-58
2021/08/30 00:18:56;;;;;;;;;4.00;2.25;;;;;23.20;46.47;101640.84;5076002;27;51067;-58
2021/08/30 00:21:21;;;;;;;;;4.75;3.75;;;;;23.19;46.55;101643.84;5077209;27;51100;-59
2021/08/30 00:23:47;;;;;;;;;2.75;2.50;;;;;23.18;46.53;101636.59;5082887;27;51799;-59
2021/08/30 00:26:12;;;;;;;;;4.00;2.25;;;;;23.18;46.40;101639.38;5078795;27;51169;-61
2021/08/30 00:28:40;;;;;;;;;2.75;2.75;;;;;23.17;46.58;101641.28;5095377;27;51192;-57
2021/08/30 00:31:05;;;;;;;;;6.00;3.50;;;;;23.16;46.54;101638.75;5089391;27;51684;-58
2021/08/30 00:33:30;;;;;;;;;5.00;4.00;;;;;23.16;46.71;101639.59;5092783;27;51979;-59
2021/08/30 00:35:56;;;;;;;;;5.25;4.50;;;;;23.15;46.46;101639.81;5091706;27;51386;-59
2021/08/30 00:38:21;;;;;;;;;4.50;3.00;;;;;23.14;46.20;101630.69;5083345;27;51611;-59
2021/08/30 00:40:46;;;;;;;;;3.00;3.00;;;;;23.14;46.36;101624.31;5094762;27;51254;-58
2021/08/30 00:43:11;;;;;;;;;5.75;4.00;;;;;23.14;46.64;101627.06;5088440;27;52004;-59
2021/08/30 00:45:37;;;;;;;;;9.00;4.50;;;;;23.13;46.98;101625.34;5072251;27;51195;-58
2021/08/30 00:48:04;;;;;;;;;3.75;3.75;;;;;23.12;46.43;101623.66;5086270;27;51135;-58
2021/08/30 00:50:29;;;;;;;;;4.00;4.00;;;;;23.11;46.51;101619.22;5093585;27;51106;-59
2021/08/30 00:52:55;;;;;;;;;6.00;4.50;;;;;23.11;46.48;101617.28;5091194;27;52174;-58
2021/08/30 00:55:20;;;;;;;;;4.50;4.00;;;;;23.11;46.59;101621.97;5075878;27;51189;-59
2021/08/30 00:57:46;;;;;;;;;3.50;3.50;;;;;23.11;46.60;101619.22;5087797;27;51019;-58
2021/08/30 01:00:12;;;;;;;;;5.25;4.00;;;;;23.10;46.80;101617.50;5087728;27;51397;-58
2021/08/30 01:02:42;;;;;;;;;5.50;4.50;;;;;23.08;47.06;101614.13;5078659;27;51101;-59
2021/08/30 01:05:09;;;;;;;;;5.75;3.25;;;;;23.10;46.49;101617.50;5093228;27;51102;-58
2021/08/30 01:07:46;;;;;;;;;5.25;4.00;;;;;23.07;47.15;101618.81;5090787;27;51048;-58
2021/08/30 01:10:31;;;;;;;;;4.50;4.00;;;;;23.07;46.65;101615.22;5098171;27;51318;-59
2021/08/30 01:13:06;;;;;;;;;7.00;4.75;;;;;23.07;46.85;101610.53;5098578;27;51200;-59
2021/08/30 01:15:40;;;;;;;;;4.75;4.00;;;;;23.06;47.38;101610.75;5089546;27;51361;-59
2021/08/30 01:18:13;;;;;;;;;4.25;4.25;;;;;23.04;47.03;101617.34;5085914;27;52231;-58
2021/08/30 01:20:49;;;;;;;;;4.75;4.75;;;;;23.05;46.78;101609.91;5090088;27;51065;-59
2021/08/30 01:23:16;;;;;;;;;3.25;3.25;;;;;23.06;46.70;101616.28;5094657;27;51774;-59
2021/08/30 01:25:41;;;;;;;;;7.50;7.00;;;;;23.06;47.13;101610.75;5081995;27;51216;-59
2021/08/30 01:28:08;;;;;;;;;5.50;5.25;;;;;23.06;47.25;101610.75;5095075;27;51083;-59
2021/08/30 01:30:36;;;;;;;;;6.25;5.75;;;;;23.04;47.45;101613.75;5086696;27;52217;-59
2021/08/30 01:33:03;;;;;;;;;5.00;5.00;;;;;23.04;47.24;101608.22;5091103;27;51779;-59
2021/08/30 01:35:31;;;;;;;;;5.00;5.00;;;;;23.05;47.33;101609.91;5097566;27;51329;-59
2021/08/30 01:37:59;;;;;;;;;6.50;6.00;;;;;23.04;47.12;101609.06;5081921;27;51647;-59
2021/08/30 01:40:30;;;;;;;;;11.75;6.25;;;;;23.03;47.88;101607.38;5097906;27;51384;-59
2021/08/30 01:42:57;;;;;;;;;5.25;4.00;;;;;23.04;47.50;101605.44;5088970;27;52059;-59
2021/08/30 01:45:25;;;;;;;;;8.25;7.25;;;;;23.03;47.50;101607.38;5079268;27;51337;-59
2021/08/30 01:47:55;;;;;;;;;7.25;7.00;;;;;23.04;47.65;101605.44;5096017;27;51040;-59
2021/08/30 01:50:22;;;;;;;;;11.75;8.00;;;;;23.03;47.69;101600.97;5095646;27;51219;-59
2021/08/30 01:52:51;;;;;;;;;8.25;6.50;;;;;23.02;47.65;101594.59;5094924;27;51258;-59
2021/08/30 02:00:47;;;;;;;;;6.75;4.25;;;;;23.02;47.62;101596.50;5093971;27;51082;-59
2021/08/30 02:03:20;;;;;;;;;7.75;6.25;;;;;23.01;48.01;101587.38;5077274;27;51997;-59
2021/08/30 02:05:51;;;;;;;;;9.25;8.00;;;;;23.01;47.91;101595.66;5082659;27;51278;-59
2021/08/30 02:08:18;;;;;;;;;6.00;6.00;;;;;23.02;48.04;101596.50;5096271;27;52207;-59
2021/08/30 02:10:45;;;;;;;;;6.75;6.75;;;;;23.01;48.11;101597.59;5088430;27;52577;-59
2021/08/30 02:13:12;;;;;;;;;8.00;5.25;;;;;23.00;47.98;101601.41;5097505;27;52094;-59
2021/08/30 02:15:38;;;;;;;;;7.00;7.00;;;;;23.00;47.76;101598.66;5088322;27;51185;-59
2021/08/30 02:18:16;;;;;;;;;5.00;5.00;;;;;23.00;47.82;101599.50;5092607;27;51126;-59
2021/08/30 02:20:50;;;;;;;;;6.00;5.25;;;;;23.01;48.27;101600.34;5094605;27;51196;-59
2021/08/30 02:23:21;;;;;;;;;5.25;5.25;;;;;23.00;48.42;101598.66;5080220;27;51131;-59
2021/08/30 02:25:50;;;;;;;;;9.00;7.00;;;;;23.00;48.20;101596.72;5078134;27;51307;-59
2021/08/30 02:28:16;;;;;;;;;5.00;4.00;;;;;22.99;48.38;101600.56;5093000;27;51280;-59
2021/08/30 02:30:42;;;;;;;;;5.25;4.50;;;;;23.00;48.22;101595.88;5095829;27;51139;-59
2021/08/30 02:33:12;;;;;;;;;5.50;3.50;;;;;22.98;48.51;101592.50;5095455;27;51132;-59
2021/08/30 02:35:42;;;;;;;;;8.75;5.75;;;;;22.99;48.14;101589.53;5090282;27;51928;-59
2021/08/30 02:38:11;;;;;;;;;7.00;5.00;;;;;22.98;48.44;101596.13;5088796;27;51183;-59
2021/08/30 02:40:39;;;;;;;;;4.75;4.75;;;;;22.98;49.03;101593.34;5067268;27;51191;-60
2021/08/30 02:43:05;;;;;;;;;6.75;5.50;;;;;22.97;48.63;101597.19;5087737;27;52059;-59
2021/08/30 02:45:32;;;;;;;;;8.00;7.25;;;;;22.95;48.76;101588.28;5087090;27;50992;-59
2021/08/30 02:47:59;;;;;;;;;6.75;5.50;;;;;22.96;48.80;101589.97;5095814;27;51090;-59
2021/08/30 02:50:27;;;;;;;;;7.00;6.75;;;;;22.96;48.47;101592.72;5095067;27;51079;-59
2021/08/30 02:52:54;;;;;;;;;8.00;8.00;;;;;22.96;48.43;101592.72;5096224;27;50970;-59
2021/08/30 02:55:20;;;;;;;;;4.00;4.00;;;;;22.96;48.59;101589.97;5093367;27;51497;-59
2021/08/30 02:57:49;;;;;;;;;9.25;6.50;;;;;22.95;48.78;101588.28;5078192;27;51000;-59
2021/08/30 03:00:16;;;;;;;;;7.25;4.75;;;;;22.95;48.99;101596.56;5077825;27;51146;-59
2021/08/30 03:02:43;;;;;;;;;9.75;6.25;;;;;22.94;48.68;101592.09;5089990;27;51426;-59
2021/08/30 03:05:10;;;;;;;;;7.00;5.25;;;;;22.95;48.76;101595.72;5095117;27;51318;-59
2021/08/30 03:07:37;;;;;;;;;7.00;6.00;;;;;22.94;49.12;101594.88;5079765;27;51352;-59
2021/08/30 03:10:03;;;;;;;;;6.00;6.00;;;;;22.94;48.79;101597.63;5076863;27;51155;-59
2021/08/30 03:12:34;;;;;;;;;6.50;5.50;;;;;22.94;49.03;101589.34;5076558;27;51171;-59
2021/08/30 03:15:04;;;;;;;;;4.50;4.50;;;;;22.94;49.11;101599.56;5089050;27;51104;-59
2021/08/30 03:17:31;;;;;;;;;6.00;5.00;;;;;22.94;48.99;101589.34;5073218;27;51760;-59
2021/08/30 03:19:57;;;;;;;;;6.75;5.25;;;;;22.92;49.03;101588.69;5076287;27;51279;-59
2021/08/30 03:22:25;;;;;;;;;5.00;5.00;;;;;22.93;49.16;101587.66;5089622;27;51543;-59
2021/08/30 03:24:51;;;;;;;;;5.75;4.75;;;;;22.93;49.16;101590.41;5088867;27;51510;-59
2021/08/30 03:27:17;;;;;;;;;8.75;8.25;;;;;22.91;49.32;101584.25;5084067;27;51148;-59
2021/08/30 03:29:44;;;;;;;;;8.75;7.25;;;;;22.93;49.27;101584.91;5073010;27;51643;-59
2021/08/30 03:32:13;;;;;;;;;5.75;5.75;;;;;22.93;49.23;101593.19;5078676;27;51558;-59
2021/08/30 03:34:38;;;;;;;;;7.50;5.50;;;;;22.92;49.39;101585.94;5084097;27;51393;-59
2021/08/30 03:37:06;;;;;;;;;6.00;6.00;;;;;22.92;49.17;101577.66;5085431;27;51013;-59
2021/08/30 03:39:31;;;;;;;;;6.25;6.25;;;;;22.92;49.55;101588.69;5090919;27;51118;-59
2021/08/30 03:41:58;;;;;;;;;9.25;6.25;;;;;22.92;49.40;101585.09;5095647;27;52770;-59
2021/08/30 03:44:24;;;;;;;;;7.00;6.00;;;;;22.91;49.64;101578.72;5094041;27;51028;-59
2021/08/30 03:46:51;;;;;;;;;5.50;5.50;;;;;22.91;49.13;101578.72;5089780;27;51171;-60
2021/08/30 03:49:17;;;;;;;;;8.25;7.00;;;;;22.92;49.16;101587.84;5078406;27;51147;-59
2021/08/30 03:51:43;;;;;;;;;6.75;4.25;;;;;22.91;49.36;101581.47;5087440;27;52003;-59
2021/08/30 03:54:09;;;;;;;;;9.25;6.25;;;;;22.91;49.87;101581.47;5083685;27;51040;-59
2021/08/30 03:56:35;;;;;;;;;6.00;6.00;;;;;22.91;49.34;101584.25;5086144;27;52010;-59
2021/08/30 03:59:04;;;;;;;;;5.75;5.75;;;;;22.91;49.53;101580.63;5076683;27;51215;-59
2021/08/30 04:01:31;;;;;;;;;10.50;6.00;;;;;22.91;49.25;101580.63;5086984;27;51798;-59
2021/08/30 04:03:59;;;;;;;;;6.00;6.00;;;;;22.90;49.95;101576.19;5094475;27;51241;-59
2021/08/30 04:06:25;;;;;;;;;11.00;6.00;;;;;22.90;49.67;101576.19;5094002;27;51202;-59
2021/08/30 04:08:51;;;;;;;;;9.00;7.25;;;;;22.91;49.78;101577.88;5096035;27;51032;-59
2021/08/30 04:11:17;;;;;;;;;8.50;7.00;;;;;22.89;49.37;101577.25;5087575;27;52014;-59
2021/08/30 04:13:42;;;;;;;;;7.25;7.00;;;;;22.91;49.65;101577.88;5094837;27;51162;-59
2021/08/30 04:16:08;;;;;;;;;8.00;7.00;;;;;22.90;50.15;101576.19;5089021;27;51564;-59
2021/08/30 04:18:34;;;;;;;;;6.50;6.50;;;;;22.90;49.82;101578.94;5080193;27;51341;-59
2021/08/30 04:20:59;;;;;;;;;7.50;6.75;;;;;22.90;50.07;101581.69;5076613;27;51872;-59
2021/08/30 04:23:25;;;;;;;;;9.00;6.75;;;;;22.89;50.12;101572.56;5083035;27;51190;-59
2021/08/30 04:25:50;;;;;;;;;8.25;7.75;;;;;22.89;49.49;101572.56;5094614;27;51016;-59
2021/08/30 04:28:15;;;;;;;;;10.25;7.00;;;;;22.89;49.88;101574.50;5075823;27;51303;-59
2021/08/30 04:30:41;;;;;;;;;6.00;6.00;;;;;22.88;49.63;101570.88;5056531;28;51951;-59
2021/08/30 04:33:12;;;;;;;;;8.50;8.00;;;;;22.88;49.77;101578.31;5088419;27;51095;-59
2021/08/30 04:35:37;;;;;;;;;9.00;9.00;;;;;22.88;49.65;101579.16;5094951;27;51355;-59
2021/08/30 04:38:03;;;;;;;;;9.00;8.00;;;;;22.88;49.98;101579.16;5095686;27;51111;-59
2021/08/30 04:40:29;;;;;;;;;5.25;5.25;;;;;22.87;50.08;101579.38;5094432;27;52344;-59
2021/08/30 04:42:54;;;;;;;;;8.50;7.50;;;;;22.88;50.29;101587.44;5082227;27;51309;-59
2021/08/30 04:45:20;;;;;;;;;8.50;8.00;;;;;22.88;49.83;101578.31;5075652;27;51175;-59
2021/08/30 04:47:45;;;;;;;;;9.25;8.50;;;;;22.88;50.04;101581.09;5084381;27;51207;-59
2021/08/30 04:50:11;;;;;;;;;12.50;9.00;;;;;22.87;50.12;101585.75;5083569;27;51038;-59
2021/08/30 04:52:36;;;;;;;;;10.50;10.00;;;;;22.87;49.99;101584.91;5088664;27;51107;-59
2021/08/30 04:55:02;;;;;;;;;10.25;6.75;;;;;22.85;50.07;101587.91;5083295;27;51149;-59
2021/08/30 04:57:27;;;;;;;;;10.25;8.50;;;;;22.88;50.51;101586.59;5075595;27;51035;-59
2021/08/30 04:59:52;;;;;;;;;10.25;8.00;;;;;22.88;49.98;101597.66;5075113;27;55746;-59
2021/08/30 05:02:18;;;;;;;;;9.25;9.25;;;;;22.86;50.34;101595.13;5085182;27;51151;-59
2021/08/30 05:04:43;;;;;;;;;12.25;10.00;;;;;22.88;50.59;101594.91;5092738;27;51007;-59
2021/08/30 05:07:08;;;;;;;;;8.75;7.00;;;;;22.86;50.46;101595.13;5095335;27;51093;-59
2021/08/30 05:09:33;;;;;;;;;10.50;8.75;;;;;22.87;50.38;101598.72;5085971;27;51095;-59
2021/08/30 05:11:59;;;;;;;;;11.25;9.00;;;;;22.87;50.74;101595.97;5075611;27;51010;-59
2021/08/30 05:14:24;;;;;;;;;9.50;9.50;;;;;22.87;50.54;101598.72;5081339;27;50969;-59
2021/08/30 05:16:49;;;;;;;;;11.50;11.25;;;;;22.85;50.87;101593.44;5083509;27;51120;-59
2021/08/30 05:19:15;;;;;;;;;10.25;9.25;;;;;22.85;50.50;101596.19;5087405;27;51825;-59
2021/08/30 05:21:40;;;;;;;;;14.00;9.75;;;;;22.85;50.69;101604.47;5088287;27;51013;-59
2021/08/30 05:24:08;;;;;;;;;12.50;11.75;;;;;22.85;50.55;101595.34;5084255;27;51283;-59
2021/08/30 05:26:35;;;;;;;;;13.00;12.00;;;;;22.85;51.02;101595.34;5079734;27;51241;-59
2021/08/30 05:29:00;;;;;;;;;11.50;10.50;;;;;22.85;50.51;101601.72;5076011;27;51009;-59
2021/08/30 05:31:26;;;;;;;;;13.75;11.75;;;;;22.84;50.62;101596.41;5071420;27;51121;-59
2021/08/30 05:33:51;;;;;;;;;15.75;13.75;;;;;22.85;50.80;101598.97;5091014;27;51220;-59
2021/08/30 05:36:18;;;;;;;;;12.75;11.25;;;;;22.84;51.05;101599.19;5088989;27;51274;-59
2021/08/30 05:38:43;;;;;;;;;13.25;11.50;;;;;22.83;50.58;101606.59;5091531;27;52226;-60
2021/08/30 05:41:08;;;;;;;;;14.50;12.75;;;;;22.82;50.76;101607.63;5062303;27;51022;-60
2021/08/30 05:43:34;;;;;;;;;13.50;13.50;;;;;22.82;51.10;101610.38;5068532;27;51153;-63
2021/08/30 05:45:59;;;;;;;;;17.25;13.50;;;;;22.82;51.12;101609.53;5070592;28;52269;-62
2021/08/30 05:48:24;;;;;;;;;17.00;11.00;;;;;22.82;50.72;101604.88;5073480;27;51161;-63
2021/08/30 05:50:50;;;;;;;;;13.25;11.25;;;;;22.83;51.40;101611.28;5078623;28;51246;-61
2021/08/30 05:53:15;;;;;;;;;11.00;9.50;;;;;22.83;50.92;101605.75;5075388;28;51206;-61
2021/08/30 05:55:40;;;;;;;;;14.25;12.50;;;;;22.82;51.00;101607.63;5057571;28;51331;-60
2021/08/30 05:58:06;;;;;;;;;11.25;10.75;;;;;22.83;51.29;101612.13;5068664;27;50988;-62
2021/08/30 06:00:31;;;;;;;;;17.25;12.25;;;;;22.84;51.18;101618.50;5072282;27;52861;-59
2021/08/30 06:02:56;;;;;;;;;13.25;9.00;;;;;22.84;50.67;101618.50;5074584;27;51107;-62
2021/08/30 06:05:22;;;;;;;;;13.25;12.50;;;;;22.85;51.17;101625.72;5064382;28;51329;-59
2021/08/30 06:07:47;;;;;;;;;12.25;11.50;;;;;22.86;50.89;101621.91;5070321;27;51048;-61
2021/08/30 06:10:14;;;;;;;;;11.50;11.50;;;;;22.86;51.21;101617.22;5072311;28;51155;-60
2021/08/30 06:12:39;;;;;;;;;13.75;12.00;;;;;22.87;50.99;101620.84;5077264;28;51106;-62
2021/08/30 06:15:06;;;;;;;;;14.25;11.00;;;;;22.88;51.38;101620.59;5071649;28;51203;-63
2021/08/30 06:17:31;;;;;;;;;10.50;9.00;;;;;22.89;51.93;101616.78;5074349;28;52299;-63
2021/08/30 06:19:56;;;;;;;;;13.50;12.25;;;;;22.91;51.51;101613.78;5068788;27;51140;-62
2021/08/30 06:22:22;;;;;;;;;10.25;9.25;;;;;22.92;51.56;101624.63;5073672;28;51160;-61
2021/08/30 06:24:48;;;;;;;;;14.25;12.75;;;;;22.93;51.30;101617.19;5074988;27;51104;-62
2021/08/30 06:27:17;;;;;;;;;15.25;14.00;;;;;22.94;51.75;101627.19;5073114;28;51607;-62
2021/08/30 06:29:43;;;;;;;;;16.50;13.75;;;;;22.94;51.75;101629.94;5052717;28;51361;-61
2021/08/30 06:32:09;;;;;;;;;16.00;13.00;;;;;22.94;51.78;101630.78;5069471;28;51266;-61
2021/08/30 06:34:34;;;;;;;;;15.75;12.25;;;;;22.95;51.82;101629.72;5073016;28;51180;-62
2021/08/30 06:36:59;;;;;;;;;15.50;11.00;;;;;22.95;51.75;101638.00;5054466;28;51053;-60
2021/08/30 06:39:25;;;;;;;;;17.00;14.00;;;;;22.96;52.15;101641.63;5075484;27;51071;-61
2021/08/30 06:41:50;;;;;;;;;19.00;16.25;;;;;22.97;51.94;101635.88;5079216;27;51237;-62
2021/08/30 06:44:16;;;;;;;;;16.50;13.50;;;;;22.96;51.99;101628.66;5097782;27;51017;-63
2021/08/30 06:46:41;;;;;;;;;18.75;17.25;;;;;22.97;51.85;101632.25;5079220;27;51011;-63
2021/08/30 06:49:06;;;;;;;;;17.00;16.00;;;;;22.97;51.94;101635.88;5069835;28;51027;-63
2021/08/30 06:51:32;;;;;;;;;21.50;19.00;;;;;22.99;51.74;101641.16;5064447;28;51001;-64
2021/08/30 06:53:57;;;;;;;;;14.50;12.75;;;;;22.99;51.46;101639.25;5073790;28;51169;-63
2021/08/30 06:56:22;;;;;;;;;18.25;14.50;;;;;22.99;51.50;101633.72;5076759;28;51058;-62
2021/08/30 06:58:48;;;;;;;;;22.25;16.00;;;;;23.00;51.59;101634.56;5076942;28;50920;-62
2021/08/30 07:01:14;;;;;;;;;15.50;15.00;;;;;23.00;51.67;101635.41;5071515;28;51001;-62
2021/08/30 07:03:39;;;;;;;;;15.50;15.50;;;;;23.00;51.39;101631.81;5076903;28;51299;-62
2021/08/30 07:06:04;;;;;;;;;15.50;14.75;;;;;23.01;51.67;101636.25;5076413;28;52081;-63
2021/08/30 07:08:30;;;;;;;;;15.50;14.25;;;;;22.99;51.54;101635.63;5076602;27;51060;-64
2021/08/30 07:10:55;;;;;;;;;17.75;14.25;;;;;23.00;51.25;101642.88;5057705;28;51123;-62
2021/08/30 07:13:20;;;;;;;;;19.00;14.25;;;;;22.99;51.38;101646.69;5076884;28;51161;-63
2021/08/30 07:15:47;;;;;;;;;14.50;13.00;;;;;22.99;51.39;101649.47;5073732;27;57384;-61
2021/08/30 07:18:14;;;;;;;;;21.75;17.75;;;;;22.97;51.42;101649.69;5071324;28;51107;-61
2021/08/30 07:20:40;;;;;;;;;20.75;19.25;;;;;22.98;51.62;101653.28;5068881;27;51116;-60
2021/08/30 07:23:05;;;;;;;;;21.75;18.50;;;;;22.98;51.00;101661.59;5079410;27;51269;-60
2021/08/30 07:25:30;;;;;;;;;17.00;15.50;;;;;22.97;51.64;101657.97;5075963;27;51076;-61
2021/08/30 07:27:56;;;;;;;;;22.00;17.25;;;;;22.98;51.61;101656.06;5079410;27;51258;-62
2021/08/30 07:30:21;;;;;;;;;17.75;14.25;;;;;22.96;51.83;101653.50;5068852;28;52375;-61
2021/08/30 07:32:48;;;;;;;;;15.75;15.75;;;;;22.97;51.96;101663.50;5062656;27;51953;-64
2021/08/30 07:35:15;;;;;;;;;17.50;16.75;;;;;22.98;52.13;101670.72;5074293;28;51333;-64
2021/08/30 07:37:40;;;;;;;;;15.75;12.50;;;;;22.98;52.18;101662.44;5071883;27;51402;-64
2021/08/30 07:40:06;;;;;;;;;18.75;17.00;;;;;22.99;51.47;101666.03;5089280;27;51212;-65
2021/08/30 07:42:31;;;;;;;;;15.75;15.75;;;;;23.00;51.87;101667.72;5084088;27;51310;-65
2021/08/30 07:44:57;;;;;;;;;18.00;15.75;;;;;23.00;51.68;101673.25;5076939;27;51816;-63
2021/08/30 07:47:22;;;;;;;;;19.75;16.25;;;;;23.00;51.43;101674.09;5074822;28;51109;-64
2021/08/30 07:49:48;;;;;;;;;16.75;13.75;;;;;23.01;51.84;101673.03;5074750;27;51336;-62
2021/08/30 07:52:13;;;;;;;;;22.00;18.50;;;;;23.02;51.54;101677.50;5091292;27;51182;-63
2021/08/30 07:54:38;;;;;;;;;17.50;16.00;;;;;23.01;52.20;101672.19;5075663;28;51802;-63
2021/08/30 07:57:04;;;;;;;;;14.00;14.00;;;;;23.02;52.25;101677.50;5075548;28;51092;-65
2021/08/30 07:59:29;;;;;;;;;20.75;18.50;;;;;23.04;51.78;101680.91;5075004;28;51321;-65
2021/08/30 08:01:55;;;;;;;;;16.75;14.25;;;;;23.07;52.19;101678.75;5075013;28;51216;-65
2021/08/30 08:04:20;;;;;;;;;16.25;16.25;;;;;23.06;51.97;101675.16;5057091;28;52189;-64
2021/08/30 08:06:46;;;;;;;;;21.75;16.50;;;;;23.08;51.93;101684.06;5053998;28;51120;-67
2021/08/30 08:09:11;;;;;;;;;15.25;14.25;;;;;23.10;51.99;101689.38;5054515;28;51175;-64
2021/08/30 08:11:36;;;;;;;;;14.75;13.00;;;;;23.11;51.60;101680.00;5054985;28;51249;-65
2021/08/30 08:14:02;;;;;;;;;18.25;15.75;;;;;23.12;51.40;101693.59;5058249;28;51037;-68
2021/08/30 08:16:28;;;;;;;;;15.00;15.00;;;;;23.13;51.61;101697.22;5056047;28;51272;-66
2021/08/30 08:18:54;;;;;;;;;17.50;14.50;;;;;23.13;51.90;101695.28;5055409;28;51202;-65
2021/08/30 08:21:23;;;;;;;;;15.00;13.00;;;;;23.15;51.35;101700.63;5055813;28;50997;-65
2021/08/30 08:23:49;;;;;;;;;11.50;11.25;;;;;23.15;51.75;101695.94;5054899;28;51969;-63
2021/08/30 08:26:15;;;;;;;;;13.00;12.00;;;;;23.15;51.25;101695.09;5065450;28;51099;-62
2021/08/30 08:28:40;;;;;;;;;15.00;13.00;;;;;23.15;51.67;101697.88;5066769;28;51205;-60
2021/08/30 08:31:05;;;;;;;;;10.25;9.00;;;;;23.18;51.03;101697.41;5075791;27;51049;-63
2021/08/30 08:33:32;;;;;;;;;18.00;14.25;;;;;23.18;51.14;101698.25;5075534;27;51047;-61
2021/08/30 08:35:57;;;;;;;;;16.00;13.75;;;;;23.20;51.50;101700.81;5075812;27;51307;-62
2021/08/30 08:38:23;;;;;;;;;17.00;15.75;;;;;23.20;50.90;101696.13;5075677;27;51338;-62
2021/08/30 08:40:51;;;;;;;;;14.25;14.25;;;;;23.22;51.02;101709.72;5075321;27;51001;-61
2021/08/30 08:43:18;;;;;;;;;14.00;12.00;;;;;23.22;51.23;101704.19;5075222;27;51808;-61
2021/08/30 08:45:47;;;;;;;;;15.00;13.75;;;;;23.22;50.66;101706.94;5075788;28;51595;-60
2021/08/30 08:48:14;;;;;;;;;10.75;10.75;;;;;23.22;51.22;101706.94;5075136;28;50961;-61
2021/08/30 08:50:39;;;;;;;;;12.25;12.25;;;;;23.23;51.19;101703.13;5074956;28;50999;-63
2021/08/30 08:53:06;;;;;;;;;14.75;11.50;;;;;23.23;50.78;101706.72;5075223;28;51787;-62
2021/08/30 08:55:34;;;;;;;;;16.50;12.75;;;;;23.24;50.94;101700.16;5075166;28;51236;-62
2021/08/30 08:58:22;;;;;;;;;15.00;12.50;;;;;23.26;51.05;101698.03;5075125;28;51345;-64
2021/08/30 09:01:10;;;;;;;;;15.75;13.00;;;;;23.27;51.10;101702.47;5074603;28;51096;-60
2021/08/30 09:03:43;;;;;;;;;12.25;11.25;;;;;23.28;50.47;101697.78;5074643;28;51841;-61
2021/08/30 09:06:08;;;;;;;;;12.00;12.00;;;;;23.29;50.89;101691.19;5074992;28;51240;-61
2021/08/30 09:08:40;;;;;;;;;13.25;12.75;;;;;23.31;50.85;101697.34;5074824;27;51098;-61
2021/08/30 09:11:14;;;;;;;;;12.75;11.75;;;;;23.31;50.53;101700.09;5074656;28;51229;-63
2021/08/30 09:13:51;;;;;;;;;15.00;12.00;;;;;23.32;50.91;101710.09;5073777;28;51132;-61
2021/08/30 09:16:19;;;;;;;;;16.00;12.75;;;;;23.32;50.46;101704.56;5075456;28;51367;-62
2021/08/30 09:18:44;;;;;;;;;11.75;11.00;;;;;23.33;51.02;101717.31;5078172;27;50984;-62
2021/08/30 09:21:11;;;;;;;;;12.00;11.00;;;;;23.33;50.31;101712.63;5078975;28;50964;-62
2021/08/30 09:23:40;;;;;;;;;11.75;10.75;;;;;23.33;50.67;101722.84;5078040;28;51842;-62
2021/08/30 09:26:05;;;;;;;;;12.75;12.75;;;;;23.34;50.41;101724.53;5077783;28;51449;-63
2021/08/30 09:28:38;;;;;;;;;13.00;12.25;;;;;23.35;50.57;101717.97;5077937;28;51195;-63
2021/08/30 09:31:03;;;;;;;;;14.00;12.00;;;;;23.36;50.39;101730.72;5078644;28;51069;-62
2021/08/30 09:33:28;;;;;;;;;15.25;13.50;;;;;23.36;50.48;101716.06;5077995;28;51060;-61
2021/08/30 09:35:59;;;;;;;;;11.00;10.50;;;;;23.35;50.44;101723.50;5078415;28;51215;-61
2021/08/30 09:38:25;;;;;;;;;13.75;11.75;;;;;23.36;50.40;101725.19;5074761;28;51064;-61
2021/08/30 09:40:51;;;;;;;;;13.00;11.25;;;;;23.38;50.42;101719.44;5077393;28;51133;-62
2021/08/30 09:43:21;;;;;;;;;9.00;9.00;;;;;23.38;50.06;101717.53;5087658;27;51768;-62
2021/08/30 09:45:46;;;;;;;;;12.75;11.75;;;;;23.38;50.20;101717.53;5098507;27;51126;-61
2021/08/30 09:48:23;;;;;;;;;11.50;11.00;;;;;23.40;49.55;101711.75;5098453;27;51017;-62
2021/08/30 09:50:48;;;;;;;;;11.50;10.50;;;;;23.39;49.74;101713.69;5096498;27;51077;-61
2021/08/30 09:53:14;;;;;;;;;15.25;9.50;;;;;23.40;50.14;101718.13;5077980;27;51879;-61
2021/08/30 09:55:39;;;;;;;;;14.50;10.00;;;;;23.41;49.60;101713.44;5077835;28;51108;-61
2021/08/30 09:58:06;;;;;;;;;10.50;10.50;;;;;23.41;49.38;101721.75;5078084;28;51285;-62
2021/08/30 10:00:33;;;;;;;;;11.75;9.75;;;;;23.41;49.45;101711.53;5078310;28;51344;-60
2021/08/30 10:03:00;;;;;;;;;11.50;11.25;;;;;23.40;49.88;101709.84;5078168;27;52332;-60
2021/08/30 10:05:30;;;;;;;;;12.50;10.25;;;;;23.41;49.61;101708.78;5077538;28;51043;-60
2021/08/30 10:07:59;;;;;;;;;11.50;11.00;;;;;23.41;49.96;101714.31;5077717;28;51068;-60
2021/08/30 10:10:25;;;;;;;;;12.25;12.00;;;;;23.41;49.37;101706.00;5077619;28;51064;-58
2021/08/30 10:12:51;;;;;;;;;12.25;11.00;;;;;23.43;49.53;101714.91;5078126;27;51085;-59
2021/08/30 10:15:19;;;;;;;;;15.75;12.00;;;;;23.44;49.43;101708.31;5059078;27;51097;-59
2021/08/30 10:17:49;;;;;;;;;12.25;10.75;;;;;23.47;49.26;101720.88;5077379;28;51173;-61
2021/08/30 10:20:16;;;;;;;;;9.25;9.00;;;;;23.50;49.26;101709.38;5077236;28;51126;-60
2021/08/30 10:22:41;;;;;;;;;12.50;12.50;;;;;23.53;49.59;101698.69;5076373;27;51962;-59
2021/08/30 10:25:16;;;;;;;;;11.00;11.00;;;;;23.56;49.09;101689.13;5076992;28;51064;-61
2021/08/30 10:27:53;;;;;;;;;9.25;9.25;;;;;23.60;49.25;101690.41;5076050;28;51106;-61
2021/08/30 10:30:18;;;;;;;;;11.75;10.00;;;;;23.62;49.16;101693.78;5076927;28;51063;-60
2021/08/30 10:32:45;;;;;;;;;13.00;11.75;;;;;23.62;49.27;101702.09;5077205;28;51035;-61
2021/08/30 10:35:16;;;;;;;;;12.00;10.00;;;;;23.64;48.96;101697.16;5077253;27;50962;-60
2021/08/30 10:37:48;;;;;;;;;11.00;10.50;;;;;23.64;48.76;101702.69;5076676;28;51174;-62
2021/08/30 10:40:16;;;;;;;;;11.00;11.00;;;;;23.64;48.96;101701.84;5076841;28;51261;-63
2021/08/30 10:42:42;;;;;;;;;9.00;9.00;;;;;23.64;48.77;101699.09;5076960;27;51196;-59
2021/08/30 10:45:09;;;;;;;;;12.50;11.75;;;;;23.64;48.89;101697.16;5095422;27;51091;-62
2021/08/30 10:47:37;;;;;;;;;11.00;9.50;;;;;23.66;48.74;101694.22;5097090;27;51121;-59
2021/08/30 10:50:17;;;;;;;;;9.25;9.00;;;;;23.67;48.89;101698.66;5097301;27;51246;-58
2021/08/30 10:52:43;;;;;;;;;17.00;14.25;;;;;23.68;49.21;101695.66;5096836;27;51733;-59
2021/08/30 10:55:16;;;;;;;;;14.00;12.75;;;;;23.71;48.90;101708.19;5087288;27;51101;-60
2021/08/30 10:57:51;;;;;;;;;13.75;11.50;;;;;23.73;48.98;101711.59;5076731;27;51036;-59
2021/08/30 11:00:29;;;;;;;;;10.75;10.75;;;;;23.75;48.95;101706.66;5076311;28;51144;-60
2021/08/30 11:02:55;;;;;;;;;14.50;13.00;;;;;23.76;48.93;101703.72;5076327;28;51085;-63
2021/08/30 11:05:30;;;;;;;;;12.00;11.00;;;;;23.78;48.84;101704.31;5077725;27;51341;-61
2021/08/30 11:07:56;;;;;;;;;11.00;10.25;;;;;23.79;49.29;101708.78;5076632;28;51036;-60
2021/08/30 11:10:25;;;;;;;;;11.00;11.00;;;;;23.83;48.95;101711.94;5076454;28;51059;-61
2021/08/30 11:12:51;;;;;;;;;13.25;12.25;;;;;23.83;48.95;101707.25;5076167;28;51112;-63
2021/08/30 11:15:16;;;;;;;;;11.75;11.75;;;;;23.85;48.89;101701.50;5076339;28;51361;-64
2021/08/30 11:17:42;;;;;;;;;10.00;10.00;;;;;23.85;49.04;101707.88;5090090;27;51195;-65
2021/08/30 11:20:08;;;;;;;;;16.75;9.50;;;;;23.90;48.88;101701.69;5095209;27;51282;-63
2021/08/30 11:22:34;;;;;;;;;9.25;9.00;;;;;23.90;49.20;101710.81;5096164;27;51441;-63